Stone Creek, OH (43840)

1:39 AM EDT on October 25, 2014 (GMT -0400)
OHDOT 106-SR39 @ Sugarcreek | Change Station
CLOSE
Current Station
Personal Weather Station
Location: Sugarcreek, OH
Elevation: 979 ft
Nearby Weather Stations

Elev 979 ft 40.51 °N, 81.61 °W | Updated 49 minutes ago

Clear
Clear
47 °F
Feels Like 47 °F
N
1
Wind Variable Wind from SW
Gusts 1.0 mph

Today
High -- | Low -- °F
--% Chance of Precip.
Yesterday
High -- | Low -- °F
Precip. -- in
7:48 AM 6:32 PM
New Moon, 2% visible
Pressure 30.02 in
Visibility 10.0 miles
Clouds Clear
Windchill 47 °F
Dew Point 41 °F
Humidity 80%
Rainfall -999.00 in
Snow Depth Not available.
UV 0 out of 12
Pollen .80 out of 12
Air Quality Not available.
Flu Activity Sporadic
METAR KPHD 250453Z AUTO 13003KT 10SM CLR 07/04 A3002 RMK AO2 SLP166 T00670044 401720022

More Conditions Fewer Conditions

Pressure 30.02 in
Visibility 10.0 miles
Clouds Clear
Windchill 47 °F
Dew Point 41 °F
Humidity 80%
Rainfall -999.00 in
Snow Depth Not available.
UV 0 out of 12
Pollen .80 out of 12
Air Quality Not available.
Flu Activity Sporadic
METAR KPHD 250453Z AUTO 13003KT 10SM CLR 07/04 A3002 RMK AO2 SLP166 T00670044 401720022

More Conditions Fewer Conditions

10-Day Weather Forecast

Almanac

Astronomy

Oct. 25, 2014 Rise Set
Actual Time 7:48 AM EDT 6:32 PM EDT
Civil Twilight 7:20 AM EDT 6:59 PM EDT
Nautical Twilight 6:48 AM EDT 7:31 PM EDT
Astronomical Twilight 6:16 AM EDT 8:03 PM EDT
Moon 9:25 AM EDT 7:53 PM EDT
Length of Visible Light 11h 39m
Length of Day
10h 43m
Tomorrow will be 2m 27s shorter.
New Moon, 2% of the Moon is Illuminated
Today
New Moon
Oct 30
First Quarter
Nov 6
Full
Nov 14
Last Quarter
Nov 22
New

Today's Extremes

State Highs State Lows

Community

WunderPhotos

Upload Photos

1,764,785 photos uploaded!

Nearby

Snow Depth

Station Depth Elevation
No new snow has been reported.

Earthquake Activity

City Distance Mag. Time & Date
No recent earthquake activity has been reported nearby.
Minimum magnitude displayed is 2.5.

Coastal Water Temperatures

Place Temperature
No Stations Reporting

Nearby Weather Stations